createdAt,value
2018-07-03T00:01:51.781Z,100059.33
2018-07-03T00:04:35.194Z,100061.94
2018-07-03T00:07:09.345Z,100062.89
2018-07-03T00:09:43.748Z,100061.48
2018-07-03T00:12:21.931Z,100061.08
2018-07-03T00:14:56.341Z,100055.67
2018-07-03T00:17:29.103Z,100052.77
2018-07-03T00:20:03.797Z,100051.95
2018-07-03T00:22:37.264Z,100056.11
2018-07-03T00:25:10.896Z,100051.95
2018-07-03T00:27:44.248Z,100045.22
2018-07-03T00:30:16.052Z,100041.09
2018-07-03T00:32:48.524Z,100042.20
2018-07-03T00:35:22.460Z,100041.33
2018-07-03T00:37:55.345Z,100037.30
2018-07-03T00:40:28.153Z,100041.03
2018-07-03T00:43:03.324Z,100046.48
2018-07-03T00:45:36.564Z,100045.51
2018-07-03T00:48:10.274Z,100040.57
2018-07-03T00:50:44.130Z,100040.61
2018-07-03T00:53:16.652Z,100038.27
2018-07-03T00:55:49.980Z,100037.28
2018-07-03T00:58:22.852Z,100033.62
2018-07-03T01:00:55.745Z,100034.75
2018-07-03T01:03:28.172Z,100033.73
2018-07-03T01:06:03.108Z,100030.59
2018-07-03T01:08:36.034Z,100036.42
2018-07-03T01:11:09.882Z,100048.17
2018-07-03T01:13:44.694Z,100051.41
2018-07-03T01:16:19.593Z,100051.48
2018-07-03T01:18:56.130Z,100047.45
2018-07-03T01:21:29.980Z,100048.39
2018-07-03T01:24:02.662Z,100054.52
2018-07-03T01:26:35.951Z,100048.59
2018-07-03T01:29:10.735Z,100051.16
2018-07-03T01:31:45.512Z,100051.77
2018-07-03T01:34:18.916Z,100052.67
2018-07-03T01:36:54.170Z,100055.20
2018-07-03T01:39:26.884Z,100057.77
2018-07-03T01:42:01.494Z,100064.53
2018-07-03T01:44:38.045Z,100062.44
2018-07-03T01:47:11.187Z,100064.50
2018-07-03T01:49:43.773Z,100058.56
2018-07-03T01:52:16.601Z,100058.38
2018-07-03T01:54:51.472Z,100056.03
2018-07-03T01:57:24.016Z,100058.33
2018-07-03T01:59:56.532Z,100054.27
2018-07-03T02:02:29.373Z,100053.00
2018-07-03T02:05:01.792Z,100053.02
2018-07-03T02:07:35.580Z,100053.64
2018-07-03T02:10:08.892Z,100056.78
2018-07-03T02:12:41.382Z,100054.41
2018-07-03T02:15:15.659Z,100057.91
2018-07-03T02:17:48.565Z,100059.64
2018-07-03T02:20:21.238Z,100057.25
2018-07-03T02:22:54.607Z,100055.16
2018-07-03T02:25:27.640Z,100055.63
2018-07-03T02:28:00.075Z,100053.47
2018-07-03T02:30:32.557Z,100054.08
2018-07-03T02:33:07.455Z,100050.68
2018-07-03T02:35:39.954Z,100051.95
2018-07-03T02:38:12.497Z,100049.66
2018-07-03T02:40:45.314Z,100049.95
2018-07-03T02:43:17.985Z,100047.33
2018-07-03T02:45:50.485Z,100050.82
2018-07-03T02:48:23.516Z,100050.61
2018-07-03T02:50:56.056Z,100049.59
2018-07-03T02:53:28.621Z,100055.34
2018-07-03T02:56:01.705Z,100056.63
2018-07-03T03:01:45.874Z,100052.32
2018-07-03T03:04:18.645Z,100052.33
2018-07-03T03:06:51.254Z,100058.57
2018-07-03T03:09:24.382Z,100054.01
2018-07-03T03:15:22.448Z,100043.19
2018-07-03T03:21:28.486Z,100045.45
2018-07-03T03:24:02.193Z,100053.74
2018-07-03T03:26:35.033Z,100053.45
2018-07-03T03:29:08.741Z,100054.15
2018-07-03T03:31:41.347Z,100051.13
2018-07-03T03:34:14.157Z,100050.39
2018-07-03T03:36:47.862Z,100049.20
2018-07-03T03:39:20.957Z,100040.61
2018-07-03T03:45:00.370Z,100046.06
2018-07-03T03:47:34.456Z,100048.22
2018-07-03T03:50:07.258Z,100047.61
2018-07-03T03:52:39.808Z,100051.17
2018-07-03T03:55:14.845Z,100047.37
2018-07-03T03:57:50.817Z,100055.33
2018-07-03T04:00:24.061Z,100050.77
2018-07-03T04:03:03.007Z,100056.03
2018-07-03T04:05:37.049Z,100054.70
2018-07-03T04:08:09.829Z,100055.77
2018-07-03T04:10:43.609Z,100055.53
2018-07-03T04:13:17.995Z,100051.35
2018-07-03T04:15:50.597Z,100054.78
2018-07-03T04:18:28.714Z,100063.06
2018-07-03T04:21:02.933Z,100064.56
2018-07-03T04:23:50.960Z,100068.50
2018-07-03T04:26:23.800Z,100067.75
2018-07-03T04:28:57.642Z,100072.20
2018-07-03T04:31:36.160Z,100070.73
2018-07-03T04:34:14.309Z,100080.30
2018-07-03T04:36:52.873Z,100075.88
2018-07-03T04:39:32.062Z,100076.98
2018-07-03T04:42:09.884Z,100075.33
2018-07-03T04:44:47.862Z,100076.59
2018-07-03T04:47:25.534Z,100075.54
2018-07-03T04:50:04.328Z,100082.14
2018-07-03T04:52:42.304Z,100082.64
2018-07-03T04:55:23.193Z,100083.48
2018-07-03T04:58:00.746Z,100084.14
2018-07-03T05:00:39.606Z,100082.39
2018-07-03T05:03:17.177Z,100091.22
2018-07-03T05:05:54.894Z,100087.59
2018-07-03T05:08:32.595Z,100091.19
2018-07-03T05:11:11.487Z,100090.75
2018-07-03T05:13:49.012Z,100095.31
2018-07-03T05:16:28.440Z,100103.59
2018-07-03T05:19:06.059Z,100103.09
2018-07-03T05:21:43.597Z,100101.86
2018-07-03T05:24:22.018Z,100105.53
2018-07-03T05:27:00.485Z,100107.95
2018-07-03T05:29:39.680Z,100103.45
2018-07-03T05:32:18.598Z,100101.81
2018-07-03T05:34:59.568Z,100103.68
2018-07-03T05:37:37.200Z,100103.30
2018-07-03T05:40:14.870Z,100098.57
2018-07-03T05:42:54.874Z,100099.83
2018-07-03T05:45:32.670Z,100101.84
2018-07-03T05:48:10.463Z,100100.04
2018-07-03T05:50:47.757Z,100110.61
2018-07-03T05:53:25.152Z,100113.48
2018-07-03T05:56:04.540Z,100112.06
2018-07-03T05:58:41.942Z,100118.09
2018-07-03T06:01:19.637Z,100117.90
2018-07-03T06:03:57.406Z,100122.44
2018-07-03T06:06:35.269Z,100123.44
2018-07-03T06:09:13.314Z,100125.02
2018-07-03T06:11:51.995Z,100125.22
2018-07-03T06:14:29.494Z,100131.20
2018-07-03T06:17:07.050Z,100126.13
2018-07-03T06:19:45.580Z,100122.14
2018-07-03T06:22:24.175Z,100119.52
2018-07-03T06:25:01.996Z,100121.73
2018-07-03T06:27:39.653Z,100114.57
2018-07-03T06:30:19.782Z,100115.13
2018-07-03T06:32:58.823Z,100113.91
2018-07-03T06:35:37.453Z,100118.30
2018-07-03T06:38:15.682Z,100114.38
2018-07-03T06:40:53.160Z,100114.38
2018-07-03T06:43:33.020Z,100115.44
2018-07-03T06:46:10.455Z,100114.91
2018-07-03T06:48:47.968Z,100114.67
2018-07-03T06:51:30.664Z,100117.71
2018-07-03T06:54:09.972Z,100121.17
2018-07-03T06:56:47.740Z,100115.04
2018-07-03T06:59:29.687Z,100115.81
2018-07-03T07:02:08.538Z,100115.78
2018-07-03T07:04:47.089Z,100120.32
2018-07-03T07:07:24.776Z,100119.32
2018-07-03T07:10:05.177Z,100120.66
2018-07-03T07:12:43.472Z,100118.39
2018-07-03T07:15:21.430Z,100115.52
2018-07-03T07:17:58.865Z,100119.16
2018-07-03T07:20:40.179Z,100112.02
2018-07-03T07:23:19.204Z,100107.17
2018-07-03T07:25:57.276Z,100105.36
2018-07-03T07:28:36.907Z,100103.23
2018-07-03T07:31:15.907Z,100099.73
2018-07-03T07:34:00.710Z,100106.05
2018-07-03T07:36:38.829Z,100102.52
2018-07-03T07:39:17.471Z,100096.27
2018-07-03T07:41:57.080Z,100094.44
2018-07-03T07:44:34.612Z,100093.98
2018-07-03T07:47:15.037Z,100094.08
2018-07-03T07:49:53.272Z,100096.45
2018-07-03T07:52:31.158Z,100090.41
2018-07-03T07:55:13.936Z,100089.83
2018-07-03T07:57:52.129Z,100085.53
2018-07-03T08:00:29.608Z,100085.70
2018-07-03T08:03:08.774Z,100078.88
2018-07-03T08:05:47.694Z,100082.16
2018-07-03T08:08:25.365Z,100086.58
2018-07-03T08:11:03.298Z,100083.80
2018-07-03T08:13:44.164Z,100076.67
2018-07-03T08:16:23.459Z,100077.03
2018-07-03T08:19:02.069Z,100079.66
2018-07-03T08:21:39.445Z,100075.20
2018-07-03T08:24:18.794Z,100069.39
2018-07-03T08:26:57.997Z,100073.60
2018-07-03T08:29:38.085Z,100075.46
2018-07-03T08:32:18.743Z,100075.77
2018-07-03T08:35:00.787Z,100074.39
2018-07-03T08:37:38.509Z,100072.70
2018-07-03T08:40:16.390Z,100069.15
2018-07-03T08:42:53.807Z,100071.94
2018-07-03T08:45:31.124Z,100064.27
2018-07-03T08:48:09.941Z,100070.75
2018-07-03T08:50:52.911Z,100074.13
2018-07-03T08:53:31.648Z,100079.56
2018-07-03T08:56:16.426Z,100075.95
2018-07-03T08:58:55.416Z,100072.48
2018-07-03T09:01:38.014Z,100081.50
2018-07-03T09:04:16.754Z,100081.88
2018-07-03T09:06:58.696Z,100076.52
2018-07-03T09:09:39.718Z,100083.09
2018-07-03T09:12:23.400Z,100079.92
2018-07-03T09:15:03.856Z,100080.08
2018-07-03T09:17:42.261Z,100079.95
2018-07-03T09:20:24.593Z,100080.45
2018-07-03T09:23:03.673Z,100078.05
2018-07-03T09:25:42.539Z,100073.44
2018-07-03T09:28:22.466Z,100068.39
2018-07-03T09:31:00.401Z,100067.05
2018-07-03T09:33:40.292Z,100064.78
2018-07-03T09:36:20.179Z,100066.47
2018-07-03T09:38:57.705Z,100062.11
2018-07-03T09:41:46.393Z,100064.91
2018-07-03T09:44:25.310Z,100062.06
2018-07-03T09:47:04.009Z,100062.73
2018-07-03T09:49:43.560Z,100060.09
2018-07-03T09:52:23.959Z,100062.94
2018-07-03T09:55:02.265Z,100057.73
2018-07-03T09:57:45.610Z,100059.77
2018-07-03T10:01:22.168Z,100059.53
2018-07-03T10:04:58.169Z,100062.67
2018-07-03T10:07:30.813Z,100056.55
2018-07-03T10:10:12.540Z,100057.13
2018-07-03T10:12:53.727Z,100050.11
2018-07-03T10:15:42.945Z,100057.51
2018-07-03T10:18:19.102Z,100050.27
2018-07-03T10:20:52.033Z,100056.65
2018-07-03T10:23:28.775Z,100059.30
2018-07-03T10:26:02.777Z,100056.05
2018-07-03T10:28:37.267Z,100051.58
2018-07-03T10:31:10.936Z,100048.52
2018-07-03T10:33:45.295Z,100051.13
2018-07-03T10:36:19.393Z,100056.81
2018-07-03T10:38:55.632Z,100050.81
2018-07-03T10:41:35.192Z,100046.34
2018-07-03T10:44:08.923Z,100043.31
2018-07-03T10:46:52.484Z,100047.03
2018-07-03T10:49:32.739Z,100042.76
2018-07-03T10:53:18.377Z,100040.30
2018-07-03T10:55:56.296Z,100038.43
2018-07-03T10:58:32.776Z,100040.86
2018-07-03T11:01:10.676Z,100036.67
2018-07-03T11:03:45.513Z,100038.51
2018-07-03T11:06:20.419Z,100034.09
2018-07-03T11:08:56.381Z,100037.07
2018-07-03T11:11:36.125Z,100038.84
2018-07-03T11:14:11.188Z,100037.45
2018-07-03T11:16:48.766Z,100035.52
2018-07-03T11:19:27.971Z,100030.72
2018-07-03T11:22:02.599Z,100033.24
2018-07-03T11:24:39.858Z,100032.34
2018-07-03T11:27:17.473Z,100029.55
2018-07-03T11:29:50.969Z,100026.70
2018-07-03T11:32:24.213Z,100025.24
2018-07-03T11:34:58.208Z,100025.84
2018-07-03T11:37:35.814Z,100020.75
2018-07-03T11:40:09.885Z,100016.21
2018-07-03T11:42:42.564Z,100014.98
2018-07-03T11:45:16.673Z,100017.80
2018-07-03T11:47:53.864Z,100012.05
2018-07-03T11:50:29.654Z,100007.70
2018-07-03T11:53:05.117Z,100010.36
2018-07-03T11:55:38.992Z,100007.91
2018-07-03T11:58:14.134Z,100003.13
2018-07-03T12:00:50.289Z,100007.62
2018-07-03T12:03:33.833Z,99999.73
2018-07-03T12:06:10.478Z,100000.67
2018-07-03T12:08:46.517Z,99992.84
2018-07-03T12:11:20.681Z,99993.79
2018-07-03T12:13:56.247Z,99994.41
2018-07-03T12:16:36.372Z,99998.28
2018-07-03T12:19:13.773Z,99994.01
2018-07-03T12:21:53.225Z,99983.59
2018-07-03T12:24:31.559Z,99985.74
2018-07-03T12:27:10.400Z,99984.33
2018-07-03T12:29:43.718Z,99985.73
2018-07-03T12:32:37.970Z,99987.07
2018-07-03T12:35:16.350Z,99983.98
2018-07-03T12:37:52.626Z,99986.88
2018-07-03T12:40:28.209Z,99982.52
2018-07-03T12:43:06.182Z,99981.03
2018-07-03T12:45:38.753Z,99980.76
2018-07-03T12:48:16.806Z,99972.38
2018-07-03T12:50:51.998Z,99977.55
2018-07-03T12:53:29.143Z,99979.44
2018-07-03T12:56:05.165Z,99979.29
2018-07-03T12:58:38.664Z,99974.69
2018-07-03T13:01:16.733Z,99966.98
2018-07-03T13:03:51.425Z,99970.47
2018-07-03T13:06:27.524Z,99967.61
2018-07-03T13:09:02.232Z,99972.34
2018-07-03T13:11:36.227Z,99963.94
2018-07-03T13:14:09.714Z,99963.84
2018-07-03T13:16:43.286Z,99961.90
2018-07-03T13:19:18.861Z,99961.17
2018-07-03T13:21:54.482Z,99964.23
2018-07-03T13:24:35.186Z,99960.17
2018-07-03T13:27:08.574Z,99959.38
2018-07-03T13:29:41.311Z,99952.17
2018-07-03T13:32:16.814Z,99952.55
2018-07-03T13:34:51.252Z,99957.07
2018-07-03T13:37:24.660Z,99950.41
2018-07-03T13:40:13.780Z,99950.23
2018-07-03T13:42:55.378Z,99946.68
2018-07-03T13:45:50.705Z,99944.97
2018-07-03T13:48:34.535Z,99946.38
2018-07-03T13:51:08.366Z,99946.55
2018-07-03T13:53:44.534Z,99944.59
2018-07-03T13:56:17.390Z,99943.47
2018-07-03T13:58:50.827Z,99941.45
2018-07-03T14:01:31.797Z,99935.53
2018-07-03T14:04:06.725Z,99940.81
2018-07-03T14:06:41.629Z,99935.98
2018-07-03T14:09:16.405Z,99934.50
2018-07-03T14:11:50.145Z,99927.95
2018-07-03T14:14:23.515Z,99923.45
2018-07-03T14:17:03.381Z,99918.41
2018-07-03T14:19:39.489Z,99912.28
2018-07-03T14:22:12.635Z,99919.22
2018-07-03T14:24:49.109Z,99915.16
2018-07-03T14:27:27.853Z,99913.32
2018-07-03T14:30:05.810Z,99911.05
2018-07-03T14:32:45.677Z,99912.32
2018-07-03T14:35:21.424Z,99907.46
2018-07-03T14:37:56.106Z,99904.97
2018-07-03T14:40:33.062Z,99911.70
2018-07-03T14:43:08.929Z,99906.94
2018-07-03T14:45:43.173Z,99903.52
2018-07-03T14:48:20.133Z,99901.30
2018-07-03T14:50:52.640Z,99901.61
2018-07-03T14:53:28.062Z,99904.70
2018-07-03T14:56:02.689Z,99899.28
2018-07-03T14:58:37.383Z,99894.97
2018-07-03T15:01:11.726Z,99900.59
2018-07-03T15:03:45.086Z,99895.18
2018-07-03T15:06:19.257Z,99898.15
2018-07-03T15:08:53.210Z,99898.98
2018-07-03T15:11:29.897Z,99893.36
2018-07-03T15:14:06.136Z,99891.55
2018-07-03T15:16:40.762Z,99886.87
2018-07-03T15:19:23.996Z,99882.72
2018-07-03T15:21:59.199Z,99879.89
2018-07-03T15:24:37.590Z,99879.11
2018-07-03T15:27:19.562Z,99884.31
2018-07-03T15:29:54.306Z,99874.80
2018-07-03T15:32:30.489Z,99878.09
2018-07-03T15:35:08.389Z,99872.22
2018-07-03T15:37:44.269Z,99871.61
2018-07-03T15:40:19.881Z,99867.98
2018-07-03T15:42:56.436Z,99868.47
2018-07-03T15:45:31.876Z,99868.44
2018-07-03T15:48:05.119Z,99863.81
2018-07-03T15:50:39.424Z,99861.71
2018-07-03T15:53:11.973Z,99856.66
2018-07-03T15:55:46.520Z,99860.05
2018-07-03T15:58:20.908Z,99860.25
2018-07-03T16:00:55.194Z,99860.98
2018-07-03T16:04:38.551Z,99861.52
2018-07-03T16:07:44.879Z,99857.23
2018-07-03T16:10:18.958Z,99847.57
2018-07-03T16:12:53.405Z,99840.61
2018-07-03T16:15:29.038Z,99841.68
2018-07-03T16:18:13.930Z,99843.63
2018-07-03T16:20:52.110Z,99847.73
2018-07-03T16:23:31.466Z,99849.13
2018-07-03T16:26:08.364Z,99839.45
2018-07-03T16:28:42.544Z,99848.41
2018-07-03T16:31:15.665Z,99839.42
2018-07-03T16:33:50.180Z,99840.93
2018-07-03T16:36:23.710Z,99841.25
2018-07-03T16:38:58.456Z,99839.10
2018-07-03T16:41:36.305Z,99839.89
2018-07-03T16:44:30.372Z,99840.39
2018-07-03T16:47:04.698Z,99839.08
2018-07-03T16:49:40.780Z,99839.19
2018-07-03T16:52:13.577Z,99837.38
2018-07-03T16:54:49.309Z,99843.88
2018-07-03T16:57:25.217Z,99845.42
2018-07-03T16:59:59.100Z,99842.37
2018-07-03T17:02:34.530Z,99836.94
2018-07-03T17:05:10.068Z,99835.45
2018-07-03T17:07:43.521Z,99833.05
2018-07-03T17:10:16.570Z,99826.16
2018-07-03T17:12:52.087Z,99830.53
2018-07-03T17:15:24.654Z,99824.48
2018-07-03T17:18:23.055Z,99827.66
2018-07-03T17:20:56.248Z,99825.73
2018-07-03T17:23:30.644Z,99825.66
2018-07-03T17:26:08.502Z,99820.75
2018-07-03T17:28:49.641Z,99815.90
2018-07-03T17:31:31.051Z,99812.94
2018-07-03T17:34:16.499Z,99814.09
2018-07-03T17:36:55.823Z,99811.04
2018-07-03T17:39:52.826Z,99807.89
2018-07-03T17:43:00.137Z,99805.96
2018-07-03T17:46:00.586Z,99804.06
2018-07-03T17:48:42.382Z,99809.18
2018-07-03T17:51:17.383Z,99811.97
2018-07-03T17:53:56.823Z,99803.47
2018-07-03T17:56:48.462Z,99808.74
2018-07-03T17:59:28.763Z,99802.36
2018-07-03T18:02:27.208Z,99802.75
2018-07-03T18:05:12.691Z,99802.19
2018-07-03T18:07:58.616Z,99801.87
2018-07-03T18:10:39.595Z,99806.59
2018-07-03T18:13:14.920Z,99803.39
2018-07-03T18:15:54.336Z,99802.87
2018-07-03T18:18:33.606Z,99805.43
2018-07-03T18:21:11.932Z,99804.70
2018-07-03T18:23:50.570Z,99805.27
2018-07-03T18:26:24.326Z,99803.09
2018-07-03T18:28:58.042Z,99805.64
2018-07-03T18:31:30.678Z,99804.53
2018-07-03T18:34:05.567Z,99806.43
2018-07-03T18:36:56.911Z,99808.30
2018-07-03T18:39:30.721Z,99807.91
2018-07-03T18:42:05.398Z,99813.30
2018-07-03T18:44:39.986Z,99815.53
2018-07-03T18:47:19.548Z,99819.17
2018-07-03T18:49:54.915Z,99829.27
2018-07-03T18:52:29.941Z,99828.86
2018-07-03T18:55:07.535Z,99830.84
2018-07-03T18:57:41.827Z,99829.97
2018-07-03T19:00:19.164Z,99832.06
2018-07-03T19:02:54.298Z,99826.65
2018-07-03T19:05:29.391Z,99831.48
2018-07-03T19:08:07.354Z,99831.29
2018-07-03T19:10:39.918Z,99831.25
2018-07-03T19:13:15.818Z,99832.19
2018-07-03T19:15:49.154Z,99829.55
2018-07-03T19:18:23.740Z,99826.41
2018-07-03T19:21:01.439Z,99830.00
2018-07-03T19:23:39.230Z,99834.17
2018-07-03T19:26:15.653Z,99833.94
2018-07-03T19:28:49.311Z,99837.45
2018-07-03T19:31:26.025Z,99833.45
2018-07-03T19:34:04.672Z,99829.51
2018-07-03T19:36:38.490Z,99834.22
2018-07-03T19:42:24.590Z,99842.56
2018-07-03T19:45:00.678Z,99841.80
2018-07-03T19:47:44.818Z,99837.02
2018-07-03T19:50:23.091Z,99841.06
2018-07-03T19:52:57.421Z,99843.49
2018-07-03T19:55:33.336Z,99843.59
2018-07-03T19:58:06.480Z,99843.26
2018-07-03T20:00:46.550Z,99839.46
2018-07-03T20:03:21.819Z,99848.25
2018-07-03T20:06:01.545Z,99850.57
2018-07-03T20:08:42.355Z,99859.05
2018-07-03T20:11:22.657Z,99860.72
2018-07-03T20:13:55.470Z,99862.31
2018-07-03T20:16:31.425Z,99860.12
2018-07-03T20:19:11.858Z,99864.13
2018-07-03T20:21:47.311Z,99867.27
2018-07-03T20:24:25.228Z,99863.13
2018-07-03T20:26:59.816Z,99874.50
2018-07-03T20:29:33.702Z,99876.81
2018-07-03T20:32:12.819Z,99872.30
2018-07-03T20:34:49.269Z,99872.70
2018-07-03T20:37:52.964Z,99875.66
2018-07-03T20:40:51.701Z,99879.95
2018-07-03T20:43:30.993Z,99878.53
2018-07-03T20:46:07.045Z,99882.68
2018-07-03T20:48:41.732Z,99884.97
2018-07-03T20:51:52.045Z,99885.31
2018-07-03T20:54:43.862Z,99893.19
2018-07-03T20:57:34.087Z,99881.23
2018-07-03T21:00:10.637Z,99887.41
2018-07-03T21:02:51.589Z,99885.79
2018-07-03T21:05:48.432Z,99891.89
2018-07-03T21:08:25.639Z,99893.70
2018-07-03T21:11:01.543Z,99894.29
2018-07-03T21:13:35.698Z,99888.31
2018-07-03T21:16:11.821Z,99889.84
2018-07-03T21:18:52.053Z,99888.73
2018-07-03T21:21:33.461Z,99888.45
2018-07-03T21:24:08.968Z,99883.33
2018-07-03T21:26:44.725Z,99878.59
2018-07-03T21:29:27.691Z,99879.34
2018-07-03T21:32:12.233Z,99882.23
2018-07-03T21:34:46.108Z,99875.23
2018-07-03T21:37:24.234Z,99875.83
2018-07-03T21:40:01.742Z,99875.92
2018-07-03T21:42:47.220Z,99873.73
2018-07-03T21:45:23.191Z,99880.23
2018-07-03T21:47:56.846Z,99883.08
2018-07-03T21:50:32.982Z,99883.41
2018-07-03T21:53:12.638Z,99883.27
2018-07-03T21:55:46.550Z,99887.90
2018-07-03T21:58:27.790Z,99884.00
2018-07-03T22:01:04.154Z,99887.59
2018-07-03T22:03:52.362Z,99890.26
2018-07-03T22:06:30.422Z,99891.06
2018-07-03T22:09:07.256Z,99890.98
2018-07-03T22:11:40.540Z,99894.42
2018-07-03T22:14:15.770Z,99891.41
2018-07-03T22:16:48.821Z,99900.63
2018-07-03T22:19:26.243Z,99902.83
2018-07-03T22:21:59.945Z,99901.88
2018-07-03T22:24:37.969Z,99896.10
2018-07-03T22:27:12.382Z,99903.45
2018-07-03T22:29:44.934Z,99899.38
2018-07-03T22:32:18.523Z,99901.13
2018-07-03T22:34:51.566Z,99890.46
2018-07-03T22:37:26.210Z,99889.59
2018-07-03T22:40:00.247Z,99885.28
2018-07-03T22:42:35.112Z,99890.50
2018-07-03T22:45:07.613Z,99886.35
2018-07-03T22:47:43.668Z,99884.71
2018-07-03T22:50:17.088Z,99882.99
2018-07-03T22:52:49.752Z,99881.56
2018-07-03T22:55:26.690Z,99883.58
2018-07-03T22:58:00.358Z,99884.83
2018-07-03T23:00:35.721Z,99882.88
2018-07-03T23:03:08.521Z,99880.00
2018-07-03T23:05:41.014Z,99885.17
2018-07-03T23:08:14.710Z,99884.05
2018-07-03T23:10:51.121Z,99883.33
2018-07-03T23:13:28.712Z,99878.19
2018-07-03T23:16:06.705Z,99880.53
2018-07-03T23:18:40.371Z,99871.23
2018-07-03T23:21:16.593Z,99876.62
2018-07-03T23:23:49.119Z,99876.02
2018-07-03T23:26:23.171Z,99875.05
2018-07-03T23:28:57.010Z,99872.92
2018-07-03T23:31:30.698Z,99870.32
2018-07-03T23:34:03.941Z,99873.86
2018-07-03T23:36:46.480Z,99871.81
2018-07-03T23:39:19.899Z,99877.98
2018-07-03T23:41:52.883Z,99876.27
2018-07-03T23:44:26.739Z,99874.45
2018-07-03T23:47:24.577Z,99878.71
2018-07-03T23:50:19.454Z,99880.88
2018-07-03T23:53:15.003Z,99876.92
2018-07-03T23:56:10.681Z,99866.90
2018-07-03T23:59:05.625Z,99871.88
